LDVC weather

Čakovec Pribisla Airport
Čakovec, Međimurje County, Croatia

Public forecast

Using degrees Celsius for public forecast. Weather courtesy of forecast.io.

Closest aviation weather report (METAR) to Čakovec Pribisla Airport

Closest report is Hévíz–Balaton Airport, 32.4 nm (60.1 km) ENE. Retrieved 2020/05/29 19:15 UTC (28 minutes ago):

LHSM 291915Z AUTO 34006KT CAVOK 13/08 Q1020

Closest aviation forecast (TAF) to Čakovec Pribisla Airport

Closest forecast is Maribor Airport, 34.1 nm (63.2 km) W. Retrieved 2020/05/29 18:06 UTC (2 hours ago):

TAF LJMB 291700Z 2918/3018 35007KT 9999 FEW050 PROB30 TEMPO 2918/2920 SHRA BKN045TCU PROB40 TEMPO 3010/3012 SHRA BKN050TCU